Time;durP1;ratioP1;P1;durP2;ratioP2;P2;SDS_P1;SDS_P2;PMS_P1;PMS_P2;Temp;Humidity;BMP_temperature;BMP_pressure;BME280_temperature;BME280_humidity;BME280_pressure;Samples;Min_cycle;Max_cycle;Signal;HPM_P1;HPM_P2
2021/12/14 00:00:03;;;;;;;14.43;9.77;;;7.80;99.90;;;;;;4859431;29;20061;-81
2021/12/14 00:02:29;;;;;;;13.32;9.63;;;7.80;99.90;;;;;;4874030;29;20045;-82
2021/12/14 00:04:59;;;;;;;12.95;9.60;;;7.80;99.90;;;;;;4870765;29;20061;-82
2021/12/14 00:07:25;;;;;;;13.10;9.35;;;7.80;99.90;;;;;;4875131;29;20051;-81
2021/12/14 00:10:00;;;;;;;12.70;9.40;;;7.80;99.90;;;;;;4873843;29;20040;-81
2021/12/14 00:17:37;;;;;;;13.73;9.35;;;7.90;99.90;;;;;;4932995;29;20047;-81
2021/12/14 00:20:19;;;;;;;14.50;10.52;;;7.90;99.90;;;;;;4942789;28;20051;-82
2021/12/14 00:25:20;;;;;;;15.32;9.35;;;7.90;99.90;;;;;;4943179;28;20126;-81
2021/12/14 00:27:46;;;;;;;14.55;9.55;;;7.90;99.90;;;;;;4909538;29;20056;-81
2021/12/14 00:30:12;;;;;;;14.45;9.48;;;7.90;99.90;;;;;;4926283;28;20432;-82
2021/12/14 00:32:38;;;;;;;13.40;9.27;;;7.90;99.90;;;;;;4913128;29;20055;-82
2021/12/14 00:35:13;;;;;;;14.82;9.90;;;9.00;99.90;;;;;;4907998;29;20580;-81
2021/12/14 00:37:52;;;;;;;16.73;9.82;;;7.90;99.90;;;;;;4928186;29;20051;-82
2021/12/14 00:40:27;;;;;;;13.48;8.98;;;7.90;99.90;;;;;;4933656;29;20047;-81
2021/12/14 00:42:55;;;;;;;12.23;8.80;;;8.30;99.90;;;;;;4913806;29;20048;-81
2021/12/14 00:45:22;;;;;;;14.23;8.88;;;7.90;99.90;;;;;;4925612;29;20453;-82
2021/12/14 00:47:49;;;;;;;14.50;9.25;;;7.90;99.90;;;;;;4931273;29;20100;-81
2021/12/14 00:50:16;;;;;;;11.25;8.57;;;8.00;99.90;;;;;;4925216;29;20043;-81
2021/12/14 00:52:43;;;;;;;14.75;9.00;;;8.00;99.90;;;;;;4911631;29;20117;-81
2021/12/14 00:55:14;;;;;;;13.07;9.18;;;8.00;99.90;;;;;;4902214;29;20051;-81
2021/12/14 00:57:40;;;;;;;14.38;9.57;;;8.00;99.90;;;;;;4926523;29;20047;-82
2021/12/14 01:00:12;;;;;;;13.05;8.88;;;8.00;99.90;;;;;;4915551;29;20074;-81
2021/12/14 01:02:39;;;;;;;12.90;9.77;;;8.00;99.90;;;;;;4910717;29;20154;-82
2021/12/14 01:05:11;;;;;;;13.80;9.35;;;8.00;99.90;;;;;;4924773;29;20047;-81
2021/12/14 01:07:37;;;;;;;15.48;9.70;;;8.00;99.90;;;;;;4925930;29;20121;-81
2021/12/14 01:10:13;;;;;;;14.98;8.95;;;8.00;99.90;;;;;;4927911;29;20054;-82
2021/12/14 01:12:47;;;;;;;15.50;9.30;;;8.00;99.90;;;;;;4912007;29;20059;-81
2021/12/14 01:15:27;;;;;;;14.60;9.80;;;8.00;99.90;;;;;;4911519;29;20115;-81
2021/12/14 01:18:12;;;;;;;16.13;10.07;;;8.10;99.90;;;;;;4931991;29;20058;-81
2021/12/14 01:20:39;;;;;;;16.95;10.23;;;8.00;99.90;;;;;;4925938;29;20126;-81
2021/12/14 01:23:15;;;;;;;19.63;11.35;;;8.00;99.90;;;;;;4924864;29;20043;-81
2021/12/14 01:25:44;;;;;;;18.55;10.65;;;8.00;99.90;;;;;;4916764;29;20391;-82
2021/12/14 01:28:18;;;;;;;17.80;10.25;;;8.00;99.90;;;;;;4916005;29;20087;-81
2021/12/14 01:31:06;;;;;;;18.73;11.25;;;8.00;99.90;;;;;;4907942;29;20046;-81
2021/12/14 01:33:33;;;;;;;17.67;10.70;;;8.00;99.90;;;;;;4909711;29;20048;-81
2021/12/14 01:36:01;;;;;;;18.95;11.05;;;8.00;99.90;;;;;;4913900;29;20480;-81
2021/12/14 01:40:59;;;;;;;19.63;11.30;;;8.00;99.90;;;;;;4928076;29;20420;-80
2021/12/14 01:43:34;;;;;;;18.30;11.05;;;8.10;99.90;;;;;;4926764;29;20074;-81
2021/12/14 01:46:10;;;;;;;18.58;11.73;;;7.90;99.90;;;;;;4942445;28;20054;-81
2021/12/14 01:48:37;;;;;;;20.42;12.45;;;7.90;99.90;;;;;;4925742;29;20051;-80
2021/12/14 01:51:06;;;;;;;21.60;12.48;;;7.90;99.90;;;;;;4922591;29;20054;-81
2021/12/14 01:53:34;;;;;;;22.52;12.75;;;7.90;99.90;;;;;;4925157;29;20118;-81
2021/12/14 01:56:04;;;;;;;24.08;12.68;;;7.90;99.90;;;;;;4912811;29;20050;-81
2021/12/14 01:58:39;;;;;;;26.48;13.43;;;7.80;99.90;;;;;;4925963;29;20103;-81
2021/12/14 02:01:16;;;;;;;25.65;13.57;;;7.80;99.90;;;;;;4938860;28;20051;-82
2021/12/14 02:03:48;;;;;;;26.30;13.55;;;7.80;99.90;;;;;;4925922;29;20043;-81
2021/12/14 02:06:17;;;;;;;26.17;14.35;;;7.80;99.90;;;;;;4909337;29;20074;-80
2021/12/14 02:08:43;;;;;;;30.63;14.13;;;7.80;99.90;;;;;;4930962;29;20062;-81
2021/12/14 02:11:09;;;;;;;23.63;14.32;;;7.80;99.90;;;;;;4922068;29;20540;-81
2021/12/14 02:13:47;;;;;;;31.13;15.38;;;7.70;99.90;;;;;;4930966;29;20071;-81
2021/12/14 02:16:16;;;;;;;28.73;14.82;;;7.80;99.90;;;;;;4926147;29;20126;-81
2021/12/14 02:18:49;;;;;;;27.50;15.23;;;7.80;99.90;;;;;;4925238;29;20046;-81
2021/12/14 02:21:16;;;;;;;23.83;14.02;;;7.80;99.90;;;;;;4927437;29;20043;-81
2021/12/14 02:23:47;;;;;;;32.42;15.27;;;7.90;99.90;;;;;;4927039;29;20047;-81
2021/12/14 02:26:17;;;;;;;28.75;13.85;;;7.80;99.90;;;;;;4940658;29;20125;-81
2021/12/14 02:28:45;;;;;;;25.25;14.00;;;7.70;99.90;;;;;;4932317;29;20091;-81
2021/12/14 02:31:13;;;;;;;26.88;14.60;;;7.70;99.90;;;;;;4929967;29;20126;-80
2021/12/14 02:33:42;;;;;;;25.65;14.77;;;7.70;99.90;;;;;;4913643;29;20058;-81
2021/12/14 02:36:18;;;;;;;32.20;14.90;;;7.70;99.90;;;;;;4923850;29;20055;-81
2021/12/14 02:38:48;;;;;;;28.52;13.77;;;7.70;99.90;;;;;;4911171;29;20051;-82
2021/12/14 02:41:14;;;;;;;34.45;14.57;;;7.70;99.90;;;;;;4923511;29;20074;-80
2021/12/14 02:43:53;;;;;;;26.70;14.10;;;8.10;99.90;;;;;;4930197;29;20047;-81
2021/12/14 02:46:47;;;;;;;27.35;15.23;;;7.70;99.90;;;;;;4907684;29;20051;-81
2021/12/14 02:49:17;;;;;;;25.92;13.70;;;7.70;99.90;;;;;;4907214;29;20134;-82
2021/12/14 02:51:49;;;;;;;25.33;15.25;;;7.70;99.90;;;;;;4926116;29;20051;-81
2021/12/14 02:54:31;;;;;;;26.92;14.15;;;7.80;99.90;;;;;;4926271;29;20070;-81
2021/12/14 02:57:05;;;;;;;25.08;14.70;;;7.80;99.90;;;;;;4940400;29;20059;-81
2021/12/14 02:59:33;;;;;;;27.17;13.55;;;7.80;99.90;;;;;;4924475;29;20114;-81
2021/12/14 03:02:05;;;;;;;27.35;14.32;;;7.80;99.90;;;;;;4931123;29;20399;-81
2021/12/14 03:04:32;;;;;;;26.65;14.52;;;7.80;99.90;;;;;;4927080;28;20085;-81
2021/12/14 03:07:00;;;;;;;27.98;14.50;;;7.80;99.90;;;;;;4895622;29;20054;-81
2021/12/14 03:12:27;;;;;;;28.75;15.07;;;7.80;99.90;;;;;;4934576;29;20046;-80
2021/12/14 03:14:58;;;;;;;27.05;14.32;;;7.80;99.90;;;;;;4943083;28;22101;-82
2021/12/14 03:17:25;;;;;;;26.90;15.57;;;7.80;99.90;;;;;;4935063;29;20134;-80
2021/12/14 03:20:09;;;;;;;27.10;13.73;;;7.90;99.90;;;;;;4927766;29;20625;-83
2021/12/14 03:22:42;;;;;;;28.38;14.75;;;7.90;99.90;;;;;;4918526;29;20457;-81
2021/12/14 03:25:09;;;;;;;29.80;15.13;;;7.90;99.90;;;;;;4928325;29;20047;-81
2021/12/14 03:27:42;;;;;;;27.80;13.93;;;7.90;99.90;;;;;;4917967;29;20398;-81
2021/12/14 03:30:42;;;;;;;28.23;15.05;;;7.90;99.90;;;;;;4927143;29;20102;-81
2021/12/14 03:33:17;;;;;;;25.92;14.00;;;7.90;99.90;;;;;;4877639;29;20063;-81
2021/12/14 03:36:00;;;;;;;25.75;13.70;;;7.90;99.90;;;;;;4925029;29;20058;-81
2021/12/14 03:38:32;;;;;;;29.05;14.73;;;7.90;99.90;;;;;;4928626;29;20050;-81
2021/12/14 03:41:11;;;;;;;28.73;15.10;;;7.90;99.90;;;;;;4943383;28;20564;-82
2021/12/14 03:43:40;;;;;;;25.80;13.38;;;7.90;99.90;;;;;;4928015;29;20146;-82
2021/12/14 03:46:06;;;;;;;27.33;15.25;;;7.90;99.90;;;;;;4925206;29;20689;-81
2021/12/14 03:48:33;;;;;;;24.40;13.68;;;7.80;99.90;;;;;;4933106;29;20054;-80
2021/12/14 03:50:59;;;;;;;28.40;14.18;;;7.90;99.90;;;;;;4926807;29;20503;-81
2021/12/14 03:53:26;;;;;;;25.65;14.35;;;7.80;99.90;;;;;;4926230;29;20047;-81
2021/12/14 03:56:00;;;;;;;26.48;14.40;;;7.90;99.90;;;;;;4913921;29;20059;-82
2021/12/14 03:58:38;;;;;;;28.27;13.75;;;7.90;99.90;;;;;;4927720;29;20087;-81
2021/12/14 04:01:19;;;;;;;25.27;14.02;;;7.90;99.90;;;;;;4925249;29;20094;-81
2021/12/14 04:03:50;;;;;;;27.85;13.88;;;7.90;99.90;;;;;;4927166;29;20051;-81
2021/12/14 04:06:17;;;;;;;25.77;13.88;;;7.90;99.90;;;;;;4927444;29;20059;-81
2021/12/14 04:08:43;;;;;;;26.27;13.73;;;8.10;99.90;;;;;;4917644;29;20058;-81
2021/12/14 04:11:11;;;;;;;23.50;13.07;;;7.90;99.90;;;;;;4925907;29;20058;-81
2021/12/14 04:13:41;;;;;;;25.00;12.90;;;8.30;99.90;;;;;;4930256;29;20056;-81
2021/12/14 04:16:08;;;;;;;27.77;12.60;;;7.90;99.90;;;;;;4926174;29;20050;-81
2021/12/14 04:18:34;;;;;;;31.45;13.55;;;7.90;99.90;;;;;;4933161;29;20043;-81
2021/12/14 04:21:01;;;;;;;23.92;13.00;;;8.00;99.90;;;;;;4926021;29;20043;-81
2021/12/14 04:23:32;;;;;;;22.73;12.82;;;8.00;99.90;;;;;;4943292;29;20047;-80
2021/12/14 04:26:00;;;;;;;22.73;13.05;;;8.00;99.90;;;;;;4910392;29;20051;-81
2021/12/14 04:28:32;;;;;;;19.38;11.60;;;8.00;99.90;;;;;;4932572;29;20050;-81
2021/12/14 04:30:58;;;;;;;19.25;11.73;;;8.00;99.90;;;;;;4942075;28;20043;-82
2021/12/14 04:33:31;;;;;;;20.90;11.27;;;8.00;99.90;;;;;;4911538;29;20133;-81
2021/12/14 04:35:58;;;;;;;24.75;10.82;;;8.00;99.90;;;;;;4926697;29;20152;-82
2021/12/14 04:38:30;;;;;;;23.48;10.85;;;8.10;99.90;;;;;;4925448;29;20130;-81
2021/12/14 04:52:19;;;;;;;20.08;11.05;;;8.10;99.90;;;;;;4927630;29;20130;-82
2021/12/14 04:54:50;;;;;;;18.85;10.20;;;8.10;99.90;;;;;;4943478;28;20051;-81
2021/12/14 04:57:32;;;;;;;22.10;10.77;;;8.10;99.90;;;;;;4911932;29;20039;-81
2021/12/14 05:00:15;;;;;;;17.35;10.30;;;8.10;99.90;;;;;;4915583;29;20524;-82
2021/12/14 05:02:43;;;;;;;22.65;11.02;;;8.10;99.90;;;;;;4925473;29;20059;-80
2021/12/14 05:05:10;;;;;;;21.65;10.63;;;8.10;99.90;;;;;;4910219;29;20067;-81
2021/12/14 05:10:08;;;;;;;25.23;11.98;;;8.00;99.90;;;;;;4926827;29;20059;-80
2021/12/14 05:12:36;;;;;;;28.38;11.35;;;8.00;99.90;;;;;;4943356;28;20051;-81
2021/12/14 05:15:06;;;;;;;21.17;11.18;;;8.00;99.90;;;;;;4911376;29;20138;-81
2021/12/14 05:17:37;;;;;;;19.73;11.45;;;8.00;99.90;;;;;;4927205;29;20051;-81
2021/12/14 05:20:05;;;;;;;27.20;12.50;;;8.00;99.90;;;;;;4925443;29;20047;-81
2021/12/14 05:22:34;;;;;;;26.65;12.25;;;8.00;99.90;;;;;;4925337;29;20055;-81
2021/12/14 05:25:17;;;;;;;21.00;11.68;;;8.00;99.90;;;;;;4931077;29;20125;-81
2021/12/14 05:27:48;;;;;;;23.80;13.10;;;7.90;99.90;;;;;;4911337;29;20055;-81
2021/12/14 05:30:30;;;;;;;25.48;13.02;;;8.00;99.90;;;;;;4908700;29;20058;-80
2021/12/14 05:33:04;;;;;;;26.05;13.32;;;7.90;99.90;;;;;;4911544;29;20100;-80
2021/12/14 05:35:31;;;;;;;30.52;13.80;;;7.90;99.90;;;;;;4925812;29;20059;-81
2021/12/14 05:37:58;;;;;;;25.60;13.02;;;7.90;99.90;;;;;;4940794;29;20069;-82
2021/12/14 05:43:13;;;;;;;34.22;14.48;;;7.90;99.90;;;;;;4925719;29;20051;-82
2021/12/14 05:45:43;;;;;;;33.33;15.98;;;7.90;99.90;;;;;;4926234;29;20485;-82
2021/12/14 05:48:15;;;;;;;33.38;14.93;;;7.90;99.90;;;;;;4940288;29;20050;-82
2021/12/14 05:50:45;;;;;;;35.97;16.52;;;7.90;99.90;;;;;;4925522;29;20125;-82
2021/12/14 05:53:21;;;;;;;30.70;15.43;;;7.90;99.90;;;;;;4941160;28;20150;-81
2021/12/14 05:55:48;;;;;;;31.13;14.38;;;7.80;99.90;;;;;;4923983;29;20851;-81
2021/12/14 05:58:18;;;;;;;29.25;15.10;;;7.80;99.90;;;;;;4925695;29;20460;-81
2021/12/14 06:00:48;;;;;;;27.17;15.18;;;7.90;99.90;;;;;;4932457;29;20039;-81
2021/12/14 06:03:22;;;;;;;28.67;13.60;;;7.80;99.90;;;;;;4928628;29;20493;-82
2021/12/14 06:05:48;;;;;;;25.08;15.07;;;7.90;99.90;;;;;;4926159;29;20051;-82
2021/12/14 06:08:20;;;;;;;33.83;15.07;;;7.90;99.90;;;;;;4925295;29;20058;-82
2021/12/14 06:10:46;;;;;;;31.05;14.65;;;7.90;99.90;;;;;;4918149;29;20055;-81
2021/12/14 06:13:16;;;;;;;24.85;14.15;;;7.90;99.90;;;;;;4908951;29;20052;-81
2021/12/14 06:15:42;;;;;;;31.38;15.23;;;7.90;99.90;;;;;;4906548;29;20055;-81
2021/12/14 06:18:07;;;;;;;31.10;14.50;;;7.90;99.90;;;;;;4891187;29;20047;-82
2021/12/14 06:20:33;;;;;;;31.98;15.43;;;7.90;99.90;;;;;;4919378;29;20939;-82
2021/12/14 06:23:00;;;;;;;36.70;16.08;;;7.90;99.90;;;;;;4926588;29;20122;-83
2021/12/14 06:25:28;;;;;;;36.47;16.58;;;7.90;99.90;;;;;;4921364;29;20052;-82
2021/12/14 06:27:57;;;;;;;31.50;16.58;;;7.90;99.90;;;;;;4925128;29;20574;-82
2021/12/14 06:30:29;;;;;;;38.30;17.90;;;7.90;99.90;;;;;;4903065;29;20383;-82
2021/12/14 06:32:58;;;;;;;34.80;17.45;;;7.90;99.90;;;;;;4936966;29;20436;-82
2021/12/14 06:35:33;;;;;;;32.47;16.02;;;7.90;99.90;;;;;;4920217;29;20048;-82
2021/12/14 06:40:42;;;;;;;43.90;17.73;;;7.80;99.90;;;;;;4938352;28;20557;-80
2021/12/14 06:43:11;;;;;;;35.25;17.45;;;7.80;99.90;;;;;;4924067;29;20057;-82
2021/12/14 06:45:44;;;;;;;38.38;16.48;;;7.80;99.90;;;;;;4925834;29;20048;-81
2021/12/14 06:48:16;;;;;;;35.72;16.83;;;7.80;99.90;;;;;;4924423;29;20127;-82
2021/12/14 06:50:49;;;;;;;38.97;18.92;;;7.80;99.90;;;;;;4925026;29;20087;-80
2021/12/14 06:53:17;;;;;;;46.85;17.50;;;7.80;99.90;;;;;;4925133;29;20531;-80
2021/12/14 06:55:45;;;;;;;43.05;18.50;;;8.10;99.90;;;;;;4909286;29;20059;-80
2021/12/14 06:58:17;;;;;;;38.90;17.92;;;7.80;99.90;;;;;;4940674;29;20111;-80
2021/12/14 07:00:50;;;;;;;41.83;17.80;;;7.80;99.90;;;;;;4923581;29;20052;-79
2021/12/14 07:03:16;;;;;;;36.65;15.55;;;7.80;99.90;;;;;;4922178;29;20106;-78
2021/12/14 07:05:47;;;;;;;42.80;18.45;;;7.80;99.90;;;;;;4927983;29;20063;-80
2021/12/14 07:08:17;;;;;;;40.75;18.10;;;7.80;99.90;;;;;;4924601;29;20058;-82
2021/12/14 07:10:44;;;;;;;42.20;16.40;;;7.80;99.90;;;;;;4931171;28;20084;-77
2021/12/14 07:13:24;;;;;;;42.25;19.40;;;7.90;99.90;;;;;;4905262;29;20047;-78
2021/12/14 07:15:51;;;;;;;45.42;18.75;;;7.80;99.90;;;;;;4921314;29;20148;-78
2021/12/14 07:18:22;;;;;;;42.30;17.17;;;7.90;99.90;;;;;;4893490;29;20501;-78
2021/12/14 07:20:50;;;;;;;36.85;17.40;;;7.90;99.90;;;;;;4904403;29;20052;-79
2021/12/14 07:23:25;;;;;;;37.00;17.38;;;7.90;99.90;;;;;;4904781;29;20056;-79
2021/12/14 07:25:55;;;;;;;34.25;17.30;;;8.00;99.90;;;;;;4905090;29;20063;-78
2021/12/14 07:28:22;;;;;;;37.80;17.13;;;8.00;99.90;;;;;;4904848;29;20487;-79
2021/12/14 07:30:54;;;;;;;35.72;16.10;;;8.00;99.90;;;;;;4904542;29;20059;-78
2021/12/14 07:33:26;;;;;;;37.53;15.57;;;8.00;99.90;;;;;;4904845;29;20081;-79
2021/12/14 07:36:04;;;;;;;33.30;14.90;;;8.00;99.90;;;;;;4921156;29;20052;-79
2021/12/14 07:38:47;;;;;;;35.40;14.68;;;8.00;99.90;;;;;;4904103;29;20095;-79
2021/12/14 07:41:16;;;;;;;29.75;14.38;;;8.00;99.90;;;;;;4920452;29;20107;-78
2021/12/14 07:44:18;;;;;;;41.83;15.68;;;8.00;99.90;;;;;;4907337;29;20525;-78
2021/12/14 07:46:58;;;;;;;37.33;14.43;;;8.00;99.90;;;;;;4903517;29;20463;-78
2021/12/14 07:49:40;;;;;;;37.58;15.57;;;8.00;99.90;;;;;;4908963;29;20084;-79
2021/12/14 07:52:08;;;;;;;37.55;15.13;;;8.00;99.90;;;;;;4903742;29;20558;-80
2021/12/14 07:55:00;;;;;;;38.72;17.05;;;8.00;99.90;;;;;;4904097;29;20770;-78
2021/12/14 07:57:32;;;;;;;38.33;15.45;;;8.00;99.90;;;;;;4904575;29;20083;-79
2021/12/14 08:00:06;;;;;;;31.73;14.63;;;8.00;99.90;;;;;;4920435;29;20048;-79
2021/12/14 08:02:40;;;;;;;34.55;13.95;;;8.00;99.90;;;;;;4904334;29;20163;-79
2021/12/14 08:05:06;;;;;;;38.05;14.68;;;7.90;99.90;;;;;;4887903;29;20056;-79
2021/12/14 08:07:38;;;;;;;45.17;16.05;;;8.00;99.90;;;;;;4904810;29;20230;-78
2021/12/14 08:10:17;;;;;;;33.15;15.57;;;8.00;99.90;;;;;;4906898;29;20053;-79
2021/12/14 08:12:47;;;;;;;29.98;15.85;;;8.00;99.90;;;;;;4941227;28;20142;-79
2021/12/14 08:15:41;;;;;;;38.80;17.75;;;8.20;99.90;;;;;;4932268;29;20047;-78
2021/12/14 08:18:12;;;;;;;38.75;17.35;;;8.10;99.90;;;;;;4932032;29;20048;-80
2021/12/14 08:20:53;;;;;;;36.28;15.95;;;8.00;99.90;;;;;;4916925;29;20055;-78
2021/12/14 08:23:24;;;;;;;42.83;17.50;;;8.10;99.90;;;;;;4924184;29;20083;-79
2021/12/14 08:26:02;;;;;;;38.53;17.08;;;8.10;99.90;;;;;;4925109;29;20093;-79
2021/12/14 08:28:28;;;;;;;32.78;15.05;;;8.10;99.90;;;;;;4924424;29;20130;-79
2021/12/14 08:31:01;;;;;;;35.72;16.92;;;8.10;99.90;;;;;;4926580;29;20134;-78
2021/12/14 08:33:29;;;;;;;40.38;17.05;;;8.00;99.90;;;;;;4931174;29;20059;-79
2021/12/14 08:36:03;;;;;;;44.35;16.77;;;8.00;99.90;;;;;;4932122;29;20055;-79
2021/12/14 08:38:32;;;;;;;29.45;15.63;;;8.10;99.90;;;;;;4931917;29;20082;-79
2021/12/14 08:41:11;;;;;;;38.35;16.40;;;8.00;99.90;;;;;;4926762;29;20126;-79
2021/12/14 08:43:45;;;;;;;35.13;15.60;;;8.10;99.90;;;;;;4925583;29;20107;-79
2021/12/14 08:46:15;;;;;;;38.78;15.85;;;8.10;99.90;;;;;;4910421;29;20066;-80
2021/12/14 08:48:44;;;;;;;31.08;13.40;;;8.00;99.90;;;;;;4926154;29;20047;-79
2021/12/14 08:51:16;;;;;;;35.22;15.10;;;8.00;99.90;;;;;;4931814;29;20050;-79
2021/12/14 08:53:45;;;;;;;24.08;12.77;;;8.00;99.90;;;;;;4925966;29;20162;-79
2021/12/14 08:56:12;;;;;;;27.60;13.55;;;8.10;99.90;;;;;;4940807;28;20051;-80
2021/12/14 08:58:40;;;;;;;29.88;13.32;;;8.10;99.90;;;;;;4932422;29;20048;-79
2021/12/14 09:01:17;;;;;;;28.35;13.00;;;8.10;99.90;;;;;;4925241;29;20508;-79
2021/12/14 09:03:57;;;;;;;21.77;11.38;;;8.00;99.90;;;;;;4932999;29;20054;-79
2021/12/14 09:06:29;;;;;;;33.60;13.05;;;8.10;99.90;;;;;;4924890;29;20056;-79
2021/12/14 09:09:00;;;;;;;25.65;12.63;;;8.10;99.90;;;;;;4924498;29;20056;-79
2021/12/14 09:11:29;;;;;;;29.67;13.15;;;8.10;99.90;;;;;;4909165;29;20051;-79
2021/12/14 09:13:57;;;;;;;30.98;13.98;;;8.20;99.90;;;;;;4926322;29;20059;-79
2021/12/14 09:16:28;;;;;;;31.50;12.93;;;8.20;99.90;;;;;;4910784;29;20058;-79
2021/12/14 09:19:11;;;;;;;22.75;10.70;;;8.20;99.90;;;;;;4924424;29;20047;-78
2021/12/14 09:21:43;;;;;;;22.77;11.07;;;8.20;99.90;;;;;;4925034;29;20118;-79
2021/12/14 09:24:13;;;;;;;24.60;11.82;;;8.10;99.90;;;;;;4911360;29;20066;-79
2021/12/14 09:26:42;;;;;;;22.73;10.77;;;8.10;99.90;;;;;;4926250;29;20055;-79
2021/12/14 09:29:12;;;;;;;24.50;11.68;;;8.10;99.90;;;;;;4916040;29;20378;-79
2021/12/14 09:31:41;;;;;;;19.42;10.38;;;8.10;99.90;;;;;;4926203;29;20055;-79
2021/12/14 09:34:10;;;;;;;22.63;11.07;;;8.10;99.90;;;;;;4931738;29;20047;-79
2021/12/14 09:36:36;;;;;;;23.50;10.82;;;8.20;99.90;;;;;;4908589;29;20055;-79
2021/12/14 09:39:10;;;;;;;24.48;9.90;;;8.10;99.90;;;;;;4923894;29;20062;-78
2021/12/14 09:41:37;;;;;;;21.15;9.77;;;8.20;99.90;;;;;;4924365;29;20123;-79
2021/12/14 09:44:08;;;;;;;24.95;10.68;;;8.20;99.90;;;;;;4900926;29;20106;-79
2021/12/14 09:46:35;;;;;;;23.65;9.68;;;8.20;99.90;;;;;;4924809;29;20788;-79
2021/12/14 09:49:04;;;;;;;23.33;8.73;;;8.20;99.90;;;;;;4939471;29;20051;-79
2021/12/14 09:51:42;;;;;;;18.70;9.18;;;8.10;99.90;;;;;;4922945;29;20131;-80
2021/12/14 09:54:14;;;;;;;25.10;9.02;;;8.20;99.90;;;;;;4924977;29;20052;-79
2021/12/14 09:56:46;;;;;;;23.85;8.77;;;8.20;99.90;;;;;;4925542;29;20134;-79
2021/12/14 09:59:12;;;;;;;27.98;9.40;;;8.50;99.90;;;;;;4924239;29;20114;-79
2021/12/14 10:01:49;;;;;;;38.55;9.65;;;8.20;99.90;;;;;;4908389;29;20051;-79
2021/12/14 10:04:20;;;;;;;23.58;8.32;;;8.20;99.90;;;;;;4924071;29;20055;-79
2021/12/14 10:06:46;;;;;;;20.60;7.63;;;8.10;99.90;;;;;;4924127;29;20654;-79
2021/12/14 10:09:23;;;;;;;30.67;8.15;;;8.10;99.90;;;;;;4922540;29;20118;-79
2021/12/14 10:12:04;;;;;;;17.83;6.80;;;8.10;99.90;;;;;;4920402;29;20059;-79
2021/12/14 10:14:37;;;;;;;22.77;7.03;;;8.10;99.90;;;;;;4922351;29;20553;-79
2021/12/14 10:17:07;;;;;;;13.95;6.47;;;8.10;99.90;;;;;;4927453;29;20087;-78
2021/12/14 10:19:35;;;;;;;16.30;6.25;;;8.10;99.90;;;;;;4926217;29;20051;-79
2021/12/14 10:22:06;;;;;;;29.02;6.82;;;8.10;99.90;;;;;;4926827;29;20043;-79
2021/12/14 10:24:33;;;;;;;19.10;6.68;;;8.20;99.90;;;;;;4934805;29;20055;-79
2021/12/14 10:27:06;;;;;;;37.03;7.47;;;8.60;99.90;;;;;;4927676;29;20056;-79
2021/12/14 10:29:33;;;;;;;40.22;8.23;;;8.20;99.90;;;;;;4927125;29;20078;-79
2021/12/14 10:32:08;;;;;;;49.92;7.85;;;8.20;99.90;;;;;;4926582;29;20075;-79
2021/12/14 10:34:40;;;;;;;49.75;8.43;;;8.20;99.90;;;;;;4926996;29;20051;-79
2021/12/14 10:37:19;;;;;;;33.30;7.30;;;8.20;99.90;;;;;;4927698;29;20063;-79
2021/12/14 10:43:04;;;;;;;34.97;7.10;;;8.20;99.90;;;;;;4942972;29;20405;-79
2021/12/14 10:45:28;;;;;;;29.73;6.57;;;8.20;99.90;;;;;;4926281;29;20095;-78
2021/12/14 10:47:56;;;;;;;29.15;7.55;;;8.20;99.90;;;;;;4927791;29;20063;-79
2021/12/14 10:50:26;;;;;;;25.52;6.78;;;8.20;99.90;;;;;;4910887;29;20043;-80
2021/12/14 10:52:52;;;;;;;20.50;5.40;;;8.30;99.90;;;;;;4919169;29;20485;-78
2021/12/14 10:55:43;;;;;;;36.92;6.35;;;8.30;99.90;;;;;;4911288;29;20086;-79
2021/12/14 10:58:11;;;;;;;25.05;5.88;;;8.30;99.90;;;;;;4913168;29;20099;-78
2021/12/14 11:00:46;;;;;;;23.08;5.78;;;8.30;99.90;;;;;;4909967;29;20063;-81
2021/12/14 11:03:17;;;;;;;20.95;5.90;;;8.30;99.90;;;;;;4942453;29;20040;-79
2021/12/14 11:05:47;;;;;;;25.02;5.95;;;8.30;99.90;;;;;;4925490;29;20059;-81
2021/12/14 11:09:01;;;;;;;30.45;6.15;;;8.30;99.90;;;;;;4927280;29;20044;-80
2021/12/14 11:11:08;;;;;;;27.33;7.15;;;8.30;99.90;;;;;;4905994;29;20047;-79
2021/12/14 11:13:45;;;;;;;27.30;7.10;;;8.40;99.90;;;;;;4927808;29;20417;-81
2021/12/14 11:16:19;;;;;;;22.58;6.90;;;8.40;99.90;;;;;;4944285;28;20043;-81
2021/12/14 11:18:47;;;;;;;29.48;7.28;;;8.40;99.90;;;;;;4926573;29;20055;-81
2021/12/14 11:21:17;;;;;;;24.63;7.40;;;8.50;99.90;;;;;;4933117;29;20054;-82
2021/12/14 11:23:46;;;;;;;30.25;7.72;;;8.50;99.90;;;;;;4932192;29;20052;-81
2021/12/14 11:26:18;;;;;;;37.17;8.25;;;8.50;99.90;;;;;;4924775;29;20066;-81
2021/12/14 11:28:56;;;;;;;40.72;8.82;;;8.50;99.90;;;;;;4927803;29;20051;-82
2021/12/14 11:31:28;;;;;;;33.28;8.77;;;8.50;99.90;;;;;;4923001;29;20731;-81
2021/12/14 11:33:58;;;;;;;54.78;9.32;;;8.50;99.90;;;;;;4927980;29;20059;-82
2021/12/14 11:36:27;;;;;;;25.27;7.47;;;8.50;99.90;;;;;;4925714;29;20515;-82
2021/12/14 11:39:07;;;;;;;25.55;7.63;;;8.50;99.90;;;;;;4923202;29;20054;-83
2021/12/14 11:41:44;;;;;;;30.98;8.52;;;8.40;99.90;;;;;;4927127;29;20138;-82
2021/12/14 11:44:42;;;;;;;32.40;9.25;;;8.50;99.90;;;;;;4923631;29;20075;-82
2021/12/14 11:50:32;;;;;;;35.45;8.65;;;8.40;99.90;;;;;;4923761;29;20101;-82
2021/12/14 11:53:09;;;;;;;32.95;9.23;;;8.50;99.90;;;;;;4923309;29;20056;-83
2021/12/14 11:55:57;;;;;;;29.05;10.38;;;8.50;99.90;;;;;;4906469;29;20143;-83
2021/12/14 11:58:42;;;;;;;28.83;8.70;;;8.60;99.90;;;;;;4924145;29;20055;-83
2021/12/14 12:01:32;;;;;;;39.67;9.90;;;8.60;99.90;;;;;;4929497;29;20184;-82
2021/12/14 12:04:11;;;;;;;33.97;9.55;;;8.60;99.90;;;;;;4922385;29;20063;-81
2021/12/14 12:09:35;;;;;;;29.90;8.68;;;8.50;99.90;;;;;;4923084;29;20137;-84
2021/12/14 12:12:04;;;;;;;28.55;9.23;;;8.50;99.90;;;;;;4923817;29;20056;-83
2021/12/14 12:15:02;;;;;;;32.30;9.13;;;8.50;99.90;;;;;;4922626;29;20103;-82
2021/12/14 12:17:45;;;;;;;30.77;9.05;;;7.50;99.90;;;;;;4904111;29;20055;-83
2021/12/14 12:20:25;;;;;;;28.02;9.68;;;8.50;99.90;;;;;;4922307;29;20035;-84
2021/12/14 12:22:59;;;;;;;35.22;11.13;;;7.80;99.90;;;;;;4921834;29;20383;-83
2021/12/14 12:25:36;;;;;;;26.67;8.77;;;8.60;99.90;;;;;;4926140;29;20055;-82
2021/12/14 12:28:18;;;;;;;38.38;10.23;;;8.60;99.90;;;;;;4936912;29;20490;-86
2021/12/14 12:30:50;;;;;;;30.63;8.63;;;8.60;99.90;;;;;;4934078;29;20046;-82
2021/12/14 12:33:31;;;;;;;27.40;9.00;;;8.60;99.90;;;;;;4923151;29;22442;-83
2021/12/14 12:35:56;;;;;;;31.35;8.52;;;8.60;99.90;;;;;;4912355;29;20605;-82
2021/12/14 12:38:26;;;;;;;23.50;8.27;;;8.60;99.90;;;;;;4920722;29;20138;-81
2021/12/14 12:40:59;;;;;;;37.92;9.27;;;8.60;99.90;;;;;;4906963;29;20052;-80
2021/12/14 12:43:51;;;;;;;29.52;9.00;;;8.60;99.90;;;;;;4923204;29;20568;-81
2021/12/14 12:46:22;;;;;;;32.25;8.77;;;8.60;99.90;;;;;;4939364;29;20707;-80
2021/12/14 12:48:50;;;;;;;28.45;8.35;;;8.60;99.90;;;;;;4926505;29;20048;-80
2021/12/14 12:51:40;;;;;;;21.77;7.68;;;8.60;99.90;;;;;;4922315;29;20490;-80
2021/12/14 12:54:15;;;;;;;28.38;9.27;;;8.60;99.90;;;;;;4923163;29;20055;-80
2021/12/14 12:56:42;;;;;;;23.05;8.15;;;8.60;99.90;;;;;;4924133;29;20055;-80
2021/12/14 12:59:11;;;;;;;27.27;7.63;;;8.70;99.90;;;;;;4904779;29;20773;-80
2021/12/14 13:01:39;;;;;;;23.60;8.38;;;8.70;99.90;;;;;;4922788;29;20051;-80
2021/12/14 13:04:05;;;;;;;26.17;7.93;;;8.70;99.90;;;;;;4922214;29;20131;-80
2021/12/14 13:06:31;;;;;;;23.20;7.50;;;8.70;99.90;;;;;;4908719;29;20131;-80
2021/12/14 13:08:58;;;;;;;29.60;7.93;;;8.60;99.90;;;;;;4902698;29;20138;-81
2021/12/14 13:11:30;;;;;;;22.33;7.60;;;8.60;99.90;;;;;;4906362;29;20056;-80
2021/12/14 13:14:07;;;;;;;36.60;8.35;;;8.60;99.90;;;;;;4905518;29;20056;-80
2021/12/14 13:16:42;;;;;;;18.75;7.70;;;8.60;99.90;;;;;;4927663;29;20086;-81
2021/12/14 13:19:23;;;;;;;35.45;8.20;;;8.60;99.90;;;;;;4921597;29;20090;-80
2021/12/14 13:21:53;;;;;;;31.30;7.93;;;8.60;99.90;;;;;;4918357;29;20580;-80
2021/12/14 13:24:29;;;;;;;18.58;7.45;;;8.60;99.90;;;;;;4907129;29;20087;-79
2021/12/14 13:27:06;;;;;;;28.27;8.15;;;8.50;99.90;;;;;;4922094;29;20486;-80
2021/12/14 13:29:47;;;;;;;23.20;8.18;;;8.50;99.90;;;;;;4904091;29;20319;-80
2021/12/14 13:32:38;;;;;;;28.73;8.10;;;8.50;99.90;;;;;;4922861;29;20062;-80
2021/12/14 13:35:07;;;;;;;22.77;8.00;;;8.50;99.90;;;;;;4922489;29;20091;-80
2021/12/14 13:37:37;;;;;;;26.58;8.40;;;8.60;99.90;;;;;;4906572;29;20052;-80
2021/12/14 13:40:28;;;;;;;35.20;9.38;;;8.50;99.90;;;;;;4921900;29;20048;-80
2021/12/14 13:43:00;;;;;;;39.25;9.55;;;8.60;99.90;;;;;;4917793;29;20090;-80
2021/12/14 13:45:33;;;;;;;24.98;8.32;;;8.50;99.90;;;;;;4921209;29;20044;-81
2021/12/14 13:48:00;;;;;;;26.85;8.70;;;8.50;99.90;;;;;;4921452;29;20040;-81